Time;durP1;ratioP1;P1;durP2;ratioP2;P2;SDS_P1;SDS_P2;PMS_P1;PMS_P2;Temp;Humidity;BMP_temperature;BMP_pressure;BME280_temperature;BME280_humidity;BME280_pressure;Samples;Min_cycle;Max_cycle;Signal;HPM_P1;HPM_P2
2023/08/26 00:00:38;;;;;;;9.23;5.63;;;;;;;20.62;100.00;97596.06;5053552;28;20229;-72
2023/08/26 00:03:05;;;;;;;6.07;5.47;;;;;;;20.66;100.00;97607.09;5053762;28;20209;-72
2023/08/26 00:05:32;;;;;;;5.50;5.00;;;;;;;20.59;100.00;97598.56;5053678;28;20227;-72
2023/08/26 00:07:58;;;;;;;7.27;5.40;;;;;;;20.61;100.00;97612.59;5053007;28;20575;-75
2023/08/26 00:10:24;;;;;;;6.30;5.23;;;;;;;20.74;100.00;97618.03;5052521;28;20596;-75
2023/08/26 00:12:52;;;;;;;8.10;5.50;;;;;;;20.57;100.00;97598.06;5052358;28;20201;-75
2023/08/26 00:15:18;;;;;;;6.87;5.33;;;;;;;20.49;100.00;97614.91;5053595;28;20209;-75
2023/08/26 00:17:45;;;;;;;6.63;5.57;;;;;;;20.56;100.00;97626.13;5040697;28;20202;-75
2023/08/26 00:20:11;;;;;;;6.63;5.13;;;;;;;20.56;100.00;97613.44;5033545;28;20222;-75
2023/08/26 00:22:38;;;;;;;6.40;5.43;;;;;;;20.52;100.00;97600.84;5033245;28;20217;-75
2023/08/26 00:25:05;;;;;;;5.90;5.40;;;;;;;20.52;100.00;97598.13;5034206;28;20209;-75
2023/08/26 00:27:31;;;;;;;7.63;6.00;;;;;;;20.46;100.00;97577.69;5053501;28;20206;-75
2023/08/26 00:29:58;;;;;;;6.10;5.40;;;;;;;20.53;100.00;97605.91;5056222;28;20217;-75
2023/08/26 00:32:24;;;;;;;5.87;5.27;;;;;;;20.54;100.00;97612.94;5057792;28;20209;-75
2023/08/26 00:34:51;;;;;;;8.60;6.30;;;;;;;20.55;100.00;97611.03;5057631;28;20211;-75
2023/08/26 00:37:17;;;;;;;6.43;5.93;;;;;;;20.45;100.00;97603.09;5057438;28;20201;-75
2023/08/26 00:39:43;;;;;;;11.07;6.93;;;;;;;20.42;100.00;97590.16;5057327;28;20734;-75
2023/08/26 00:42:10;;;;;;;9.67;6.23;;;;;;;20.36;100.00;97588.63;5052394;28;20569;-75
2023/08/26 00:44:36;;;;;;;6.37;5.33;;;;;;;20.37;100.00;97588.34;5058337;28;20580;-75
2023/08/26 00:47:02;;;;;;;7.20;5.53;;;;;;;20.33;100.00;97590.03;5057233;28;20566;-75
2023/08/26 00:49:29;;;;;;;9.03;6.20;;;;;;;20.29;100.00;97580.91;5057222;28;20224;-75
2023/08/26 00:51:56;;;;;;;7.17;5.63;;;;;;;20.39;100.00;97578.06;5057035;28;20194;-75
2023/08/26 00:54:23;;;;;;;6.40;5.80;;;;;;;20.46;100.00;97588.47;5039395;28;20213;-76
2023/08/26 00:56:50;;;;;;;6.27;5.50;;;;;;;20.50;100.00;97603.00;5057047;28;20216;-76
2023/08/26 00:59:16;;;;;;;7.90;5.50;;;;;;;20.51;100.00;97613.53;5056947;28;20730;-75
2023/08/26 01:01:44;;;;;;;6.47;5.20;;;;;;;20.50;100.00;97605.72;5048223;28;20222;-76
2023/08/26 01:04:12;;;;;;;6.53;5.37;;;;;;;20.54;100.00;97601.34;5037356;28;20208;-76
2023/08/26 01:06:38;;;;;;;6.10;5.50;;;;;;;20.55;100.00;97611.84;5037949;28;20653;-76
2023/08/26 01:09:05;;;;;;;7.20;6.50;;;;;;;20.54;100.00;97617.53;5036789;28;20239;-76
2023/08/26 01:11:38;;;;;;;5.60;5.10;;;;;;;20.48;100.00;97624.91;5047990;28;20208;-76
2023/08/26 01:14:23;;;;;;;6.43;5.07;;;;;;;20.47;100.00;97638.69;5056479;28;20665;-76
2023/08/26 01:16:50;;;;;;;7.20;4.83;;;;;;;20.32;100.00;97633.50;5056843;28;20193;-76
2023/08/26 01:19:30;;;;;;;6.57;5.93;;;;;;;20.35;100.00;97622.13;5056796;28;20708;-77
2023/08/26 01:22:01;;;;;;;6.57;5.87;;;;;;;20.31;100.00;97634.63;5057332;28;20217;-76
2023/08/26 01:24:28;;;;;;;6.47;5.40;;;;;;;20.23;100.00;97654.97;5057180;28;20190;-76
2023/08/26 01:26:54;;;;;;;9.60;6.10;;;;;;;20.14;100.00;97682.88;5055018;28;20216;-76
2023/08/26 01:29:20;;;;;;;7.13;5.70;;;;;;;20.12;100.00;97687.78;5056620;28;20229;-76
2023/08/26 01:31:54;;;;;;;12.67;6.70;;;;;;;20.02;100.00;97675.16;5056272;28;20577;-77
2023/08/26 01:34:27;;;;;;;11.33;5.90;;;;;;;20.07;100.00;97677.00;5056415;28;20189;-76
2023/08/26 01:36:55;;;;;;;10.17;5.90;;;;;;;19.97;100.00;97683.31;5056267;28;20674;-76
2023/08/26 01:39:22;;;;;;;6.33;5.37;;;;;;;20.00;100.00;97681.94;5055932;28;20233;-76
2023/08/26 01:41:52;;;;;;;7.73;5.53;;;;;;;20.00;100.00;97669.25;5056162;28;20696;-75
2023/08/26 01:44:19;;;;;;;7.47;5.80;;;;;;;19.83;100.00;97665.41;5056826;28;20208;-76
2023/08/26 01:46:48;;;;;;;5.87;5.27;;;;;;;19.76;100.00;97649.56;5055831;28;20197;-75
2023/08/26 01:49:14;;;;;;;5.97;4.80;;;;;;;19.75;100.00;97656.06;5040319;28;20716;-75
2023/08/26 01:51:41;;;;;;;8.50;5.60;;;;;;;19.90;100.00;97638.91;5036329;28;20202;-75
2023/08/26 01:54:08;;;;;;;8.83;5.90;;;;;;;19.90;100.00;97628.09;5036566;28;20202;-75
2023/08/26 01:56:35;;;;;;;13.70;6.03;;;;;;;19.93;100.00;97641.81;5056654;28;20201;-75
2023/08/26 01:59:01;;;;;;;8.40;5.30;;;;;;;20.02;100.00;97642.78;5055123;28;20218;-75
2023/08/26 02:01:27;;;;;;;9.53;5.20;;;;;;;19.93;100.00;97651.81;5056463;28;20228;-75
2023/08/26 02:03:54;;;;;;;7.33;5.50;;;;;;;19.95;100.00;97650.44;5056993;28;20206;-75
2023/08/26 02:06:21;;;;;;;8.27;5.60;;;;;;;19.87;100.00;97650.25;5056620;28;20275;-75
2023/08/26 02:08:48;;;;;;;5.83;5.07;;;;;;;19.90;100.00;97652.38;5038386;28;20248;-76
2023/08/26 02:11:14;;;;;;;5.83;4.80;;;;;;;19.84;100.00;97651.63;5040239;28;20193;-75
2023/08/26 02:13:40;;;;;;;5.80;4.80;;;;;;;19.82;100.00;97647.63;5056661;28;20201;-75
2023/08/26 02:16:07;;;;;;;5.20;4.63;;;;;;;19.83;100.00;97654.59;5056927;28;20211;-76
2023/08/26 02:18:33;;;;;;;5.27;4.77;;;;;;;19.88;100.00;97649.97;5056607;28;20233;-75
2023/08/26 02:21:00;;;;;;;7.53;4.70;;;;;;;19.86;100.00;97649.47;5056635;28;20232;-75
2023/08/26 02:23:26;;;;;;;5.17;4.63;;;;;;;19.81;100.00;97662.97;5056632;28;20300;-75
2023/08/26 02:25:52;;;;;;;6.20;4.70;;;;;;;19.87;100.00;97666.44;5055894;28;20205;-75
2023/08/26 02:28:19;;;;;;;11.27;4.70;;;;;;;19.90;100.00;97661.25;5055749;28;20213;-76
2023/08/26 02:30:45;;;;;;;4.23;3.70;;;;;;;19.89;100.00;97658.88;5056168;28;20549;-76
2023/08/26 02:33:11;;;;;;;5.77;3.83;;;;;;;19.89;100.00;97670.44;5056554;28;20205;-76
2023/08/26 02:35:38;;;;;;;6.70;4.10;;;;;;;19.88;100.00;97668.03;5056165;28;20193;-75
2023/08/26 02:38:04;;;;;;;6.90;4.47;;;;;;;19.91;100.00;97672.88;5056146;28;20214;-76
2023/08/26 02:40:31;;;;;;;5.03;4.50;;;;;;;19.89;100.00;97666.97;5055497;28;20233;-75
2023/08/26 02:42:57;;;;;;;4.10;3.73;;;;;;;19.88;100.00;97676.13;5055902;28;20683;-75
2023/08/26 02:45:23;;;;;;;7.27;4.40;;;;;;;19.95;100.00;97665.81;5055424;28;20206;-75
2023/08/26 02:47:50;;;;;;;5.13;4.33;;;;;;;20.00;100.00;97665.75;5055772;28;20202;-75
2023/08/26 02:50:16;;;;;;;7.20;4.13;;;;;;;19.95;100.00;97665.81;5055249;28;20229;-75
2023/08/26 02:52:43;;;;;;;7.37;4.50;;;;;;;19.98;100.00;97665.25;5054794;28;20211;-75
2023/08/26 02:55:10;;;;;;;7.40;4.03;;;;;;;19.95;100.00;97671.22;5055526;28;20213;-75
2023/08/26 02:57:36;;;;;;;7.57;4.33;;;;;;;20.04;100.00;97659.50;5055351;28;20299;-75
2023/08/26 03:00:04;;;;;;;4.27;3.93;;;;;;;19.77;100.00;97661.97;5055412;28;20232;-75
2023/08/26 03:02:31;;;;;;;7.87;3.90;;;;;;;19.73;100.00;97670.91;5055381;28;20229;-75
2023/08/26 03:04:58;;;;;;;4.50;3.83;;;;;;;19.82;100.00;97682.69;5055527;28;20208;-75
2023/08/26 03:07:24;;;;;;;6.87;4.67;;;;;;;19.73;100.00;97673.59;5055046;28;20223;-75
2023/08/26 03:09:50;;;;;;;5.10;4.40;;;;;;;19.72;100.00;97669.31;5055010;28;20232;-75
2023/08/26 03:12:17;;;;;;;4.77;4.37;;;;;;;19.73;100.00;97679.00;5054455;28;20197;-72
2023/08/26 03:14:43;;;;;;;4.83;4.40;;;;;;;19.71;100.00;97678.50;5054148;28;20215;-72
2023/08/26 03:17:09;;;;;;;5.20;4.70;;;;;;;19.69;100.00;97686.88;5054395;28;20201;-72
2023/08/26 03:19:36;;;;;;;5.00;4.60;;;;;;;19.68;100.00;97669.88;5054615;28;20262;-72
2023/08/26 03:22:02;;;;;;;6.03;4.40;;;;;;;19.67;100.00;97685.56;5054264;28;20229;-72
2023/08/26 03:24:28;;;;;;;5.37;4.87;;;;;;;19.67;100.00;97690.94;5053955;28;20209;-72
2023/08/26 03:26:55;;;;;;;5.17;4.63;;;;;;;19.64;100.00;97701.19;5053891;28;20672;-72
2023/08/26 03:29:21;;;;;;;4.83;4.30;;;;;;;19.73;100.00;97687.09;5053700;28;20233;-72
2023/08/26 03:31:50;;;;;;;6.23;4.70;;;;;;;19.68;100.00;97699.53;5053903;28;20560;-72
2023/08/26 03:34:16;;;;;;;5.90;5.13;;;;;;;19.73;100.00;97684.41;5053819;28;20209;-72
2023/08/26 03:36:43;;;;;;;5.47;4.70;;;;;;;19.57;100.00;97689.13;5053632;28;20695;-72
2023/08/26 03:39:10;;;;;;;6.63;4.37;;;;;;;19.53;100.00;97683.53;5053329;28;20240;-72
2023/08/26 03:41:36;;;;;;;5.20;4.67;;;;;;;19.48;100.00;97679.28;5053729;28;20221;-72
2023/08/26 03:44:04;;;;;;;4.67;4.20;;;;;;;19.41;100.00;97682.31;5053421;28;20219;-72
2023/08/26 03:46:31;;;;;;;8.67;5.40;;;;;;;19.45;100.00;97670.66;5053814;28;20201;-72
2023/08/26 03:48:57;;;;;;;5.57;4.50;;;;;;;19.45;100.00;97676.03;5053353;28;20663;-73
2023/08/26 03:51:23;;;;;;;7.30;4.43;;;;;;;19.49;100.00;97679.78;5053765;28;20287;-72
2023/08/26 03:53:50;;;;;;;4.77;4.30;;;;;;;19.55;100.00;97686.72;5053783;28;20205;-73
2023/08/26 03:56:16;;;;;;;5.00;4.53;;;;;;;19.46;100.00;97688.44;5053683;28;20318;-73
2023/08/26 03:58:42;;;;;;;6.53;4.40;;;;;;;19.37;100.00;97690.13;5053635;28;20225;-72
2023/08/26 04:01:09;;;;;;;9.70;4.93;;;;;;;19.42;100.00;97686.59;5053375;28;20221;-73
2023/08/26 04:03:35;;;;;;;5.83;4.43;;;;;;;19.34;100.00;97700.69;5053430;28;20209;-73
2023/08/26 04:06:15;;;;;;;5.50;4.40;;;;;;;19.36;100.00;97707.41;5053817;28;20201;-75
2023/08/26 04:08:42;;;;;;;7.27;4.70;;;;;;;19.30;100.00;97723.91;5053478;28;20228;-75
2023/08/26 04:11:08;;;;;;;7.40;4.20;;;;;;;19.25;100.00;97715.84;5053111;28;20708;-75
2023/08/26 04:13:35;;;;;;;4.43;4.03;;;;;;;19.26;100.00;97720.16;5053518;28;20208;-75
2023/08/26 04:16:03;;;;;;;5.97;4.30;;;;;;;19.20;100.00;97723.97;5052508;28;20205;-75
2023/08/26 04:18:30;;;;;;;6.80;5.03;;;;;;;19.19;100.00;97731.22;5053419;28;20209;-75
2023/08/26 04:20:57;;;;;;;9.13;4.50;;;;;;;19.28;100.00;97731.47;5052740;28;20213;-75
2023/08/26 04:23:24;;;;;;;7.80;4.70;;;;;;;19.13;100.00;97735.06;5044144;28;20684;-75
2023/08/26 04:25:59;;;;;;;6.50;4.63;;;;;;;19.18;100.00;97736.91;5032475;28;20575;-75
2023/08/26 04:28:25;;;;;;;5.80;5.20;;;;;;;19.13;100.00;97732.34;5051412;28;20197;-75
2023/08/26 04:30:52;;;;;;;9.17;5.50;;;;;;;19.12;100.00;97736.16;5053041;28;20664;-75
2023/08/26 04:33:19;;;;;;;5.30;4.80;;;;;;;18.99;100.00;97735.94;5052864;28;20201;-75
2023/08/26 04:35:45;;;;;;;8.50;5.23;;;;;;;19.11;100.00;97745.31;5052087;28;20672;-75
2023/08/26 04:38:13;;;;;;;5.90;4.97;;;;;;;19.12;100.00;97744.22;5052208;28;20617;-75
2023/08/26 04:40:41;;;;;;;7.73;5.00;;;;;;;19.22;100.00;97752.25;5052842;28;20233;-75
2023/08/26 04:43:10;;;;;;;8.87;5.53;;;;;;;19.11;100.00;97764.19;5052182;28;20217;-75
2023/08/26 04:45:37;;;;;;;7.50;4.80;;;;;;;19.10;100.00;97759.06;5053097;28;20266;-75
2023/08/26 04:48:08;;;;;;;9.97;5.23;;;;;;;19.09;100.00;97757.47;5053357;28;20209;-75
2023/08/26 04:50:35;;;;;;;8.50;5.10;;;;;;;19.05;100.00;97762.59;5051854;28;20592;-75
2023/08/26 04:53:02;;;;;;;8.30;5.13;;;;;;;19.02;100.00;97775.81;5053085;28;20201;-76
2023/08/26 04:55:29;;;;;;;8.47;5.00;;;;;;;19.17;100.00;97776.53;5053155;28;20244;-76
2023/08/26 04:57:57;;;;;;;5.60;4.90;;;;;;;19.16;100.00;97779.50;5052920;28;20233;-76
2023/08/26 05:00:23;;;;;;;6.60;5.23;;;;;;;19.12;100.00;97781.13;5051422;28;20225;-76
2023/08/26 05:02:48;;;;;;;8.40;5.20;;;;;;;19.16;100.00;97772.22;5051042;28;20316;-76
2023/08/26 05:05:15;;;;;;;6.53;4.80;;;;;;;19.11;100.00;97780.34;5051158;28;20284;-76
2023/08/26 05:07:41;;;;;;;6.47;4.53;;;;;;;19.10;100.00;97797.59;5051055;28;20212;-76
2023/08/26 05:10:08;;;;;;;9.00;4.80;;;;;;;18.99;100.00;97790.66;5051007;28;20235;-76
2023/08/26 05:12:34;;;;;;;8.27;5.30;;;;;;;19.09;100.00;97789.81;5051126;28;20229;-76
2023/08/26 05:15:02;;;;;;;7.80;4.57;;;;;;;18.95;100.00;97795.00;5052200;28;20205;-76
2023/08/26 05:17:28;;;;;;;7.67;4.40;;;;;;;19.02;100.00;97800.88;5056746;28;20205;-76
2023/08/26 05:19:55;;;;;;;7.63;4.80;;;;;;;19.03;100.00;97799.78;5056768;28;20225;-76
2023/08/26 05:22:22;;;;;;;8.63;4.97;;;;;;;19.06;100.00;97799.25;5056767;28;20235;-76
2023/08/26 05:24:48;;;;;;;6.07;4.83;;;;;;;19.12;100.00;97795.44;5056541;28;20210;-74
2023/08/26 05:27:15;;;;;;;5.20;4.70;;;;;;;19.10;100.00;97792.19;5056567;28;20288;-74
2023/08/26 05:29:42;;;;;;;8.73;4.60;;;;;;;19.05;100.00;97792.22;5056456;28;20256;-74
2023/08/26 05:32:08;;;;;;;6.90;5.07;;;;;;;19.23;100.00;97793.50;5056380;28;20205;-74
2023/08/26 05:34:35;;;;;;;8.13;5.67;;;;;;;19.18;100.00;97791.59;5056336;28;20205;-74
2023/08/26 05:37:02;;;;;;;5.37;4.87;;;;;;;19.20;100.00;97797.53;5056185;28;20259;-74
2023/08/26 05:39:28;;;;;;;6.53;4.77;;;;;;;19.18;100.00;97802.38;5055815;28;20275;-74
2023/08/26 05:41:55;;;;;;;7.23;5.23;;;;;;;19.14;100.00;97790.56;5055861;28;20216;-74
2023/08/26 05:44:21;;;;;;;7.90;5.30;;;;;;;19.03;100.00;97785.50;5056009;28;20201;-74
2023/08/26 05:46:47;;;;;;;7.60;5.20;;;;;;;19.11;100.00;97779.53;5055755;28;20213;-74
2023/08/26 05:49:14;;;;;;;8.73;5.27;;;;;;;18.96;100.00;97791.19;5055960;28;20229;-73
2023/08/26 05:51:40;;;;;;;9.70;5.50;;;;;;;19.08;100.00;97788.16;5055699;28;20682;-73
2023/08/26 05:54:06;;;;;;;6.30;4.77;;;;;;;19.03;100.00;97780.94;5055695;28;20668;-73
2023/08/26 05:56:33;;;;;;;8.57;5.77;;;;;;;19.11;100.00;97783.03;5055934;28;20205;-73
2023/08/26 05:58:59;;;;;;;6.87;5.40;;;;;;;19.20;100.00;97788.63;5055710;28;20690;-74
2023/08/26 06:01:25;;;;;;;8.53;5.03;;;;;;;19.28;100.00;97788.88;5055169;28;20588;-74
2023/08/26 06:03:52;;;;;;;6.13;4.87;;;;;;;19.48;100.00;97793.31;5055666;28;20205;-74
2023/08/26 06:06:18;;;;;;;7.80;4.47;;;;;;;19.71;100.00;97807.97;5055695;28;20205;-74
2023/08/26 06:08:45;;;;;;;6.47;5.80;;;;;;;19.86;100.00;97799.72;5055327;28;20590;-74
2023/08/26 06:11:11;;;;;;;7.60;4.73;;;;;;;19.94;100.00;97799.13;5055471;28;20673;-74
2023/08/26 06:13:37;;;;;;;5.67;4.40;;;;;;;19.86;100.00;97799.72;5055589;28;20231;-73
2023/08/26 06:16:04;;;;;;;7.33;4.60;;;;;;;19.95;100.00;97789.94;5055643;28;20209;-73
2023/08/26 06:18:30;;;;;;;5.43;4.80;;;;;;;19.94;100.00;97789.13;5055470;28;20209;-73
2023/08/26 06:20:57;;;;;;;5.20;4.70;;;;;;;19.83;100.00;97794.88;5055151;28;20624;-74
2023/08/26 06:23:23;;;;;;;10.60;4.60;;;;;;;19.76;100.00;97799.81;5055143;28;20255;-73
2023/08/26 06:25:53;;;;;;;5.03;4.50;;;;;;;19.79;100.00;97794.66;5055229;28;20205;-74
2023/08/26 06:28:21;;;;;;;8.47;4.30;;;;;;;19.93;100.00;97811.78;5054841;28;20204;-74
2023/08/26 06:30:47;;;;;;;8.03;4.30;;;;;;;20.02;100.00;97823.59;5055172;28;20209;-74
2023/08/26 06:33:14;;;;;;;6.67;4.77;;;;;;;20.03;100.00;97817.09;5055289;28;20201;-74
2023/08/26 06:35:41;;;;;;;6.77;4.90;;;;;;;20.02;100.00;97822.78;5055184;28;20240;-73
2023/08/26 06:38:08;;;;;;;7.00;4.07;;;;;;;20.09;100.00;97809.78;5054890;28;20694;-74
2023/08/26 06:40:34;;;;;;;7.70;4.50;;;;;;;20.12;100.00;97811.94;5054681;28;20240;-74
2023/08/26 06:43:02;;;;;;;6.63;3.97;;;;;;;20.33;100.00;97813.31;5054862;28;20229;-74
2023/08/26 06:45:29;;;;;;;5.30;3.77;;;;;;;20.46;100.00;97826.94;5054939;28;20216;-74
2023/08/26 06:47:56;;;;;;;5.97;3.90;;;;;;;20.43;100.00;97832.13;5054888;28;20220;-73
2023/08/26 06:50:22;;;;;;;6.40;4.80;;;;;;;20.38;100.00;97818.63;5054985;28;20225;-73
2023/08/26 06:52:49;;;;;;;5.30;3.93;;;;;;;20.18;100.00;97824.28;5055225;28;20208;-73
2023/08/26 06:55:17;;;;;;;6.30;4.83;;;;;;;20.33;100.00;97829.50;5054819;28;20201;-74
2023/08/26 06:57:43;;;;;;;4.97;4.40;;;;;;;20.35;100.00;97819.25;5054788;28;20227;-74
2023/08/26 07:00:12;;;;;;;5.27;4.77;;;;;;;20.37;100.00;97806.25;5054623;28;20235;-74
2023/08/26 07:02:38;;;;;;;4.40;4.00;;;;;;;20.35;100.00;97808.44;5054138;28;20225;-74
2023/08/26 07:05:05;;;;;;;7.00;4.73;;;;;;;20.32;100.00;97817.91;5054451;28;20224;-74
2023/08/26 07:07:32;;;;;;;7.33;4.40;;;;;;;20.19;100.00;97817.78;5054507;28;20231;-74
2023/08/26 07:10:01;;;;;;;4.90;4.07;;;;;;;20.14;100.00;97818.66;5054423;28;20221;-74
2023/08/26 07:12:28;;;;;;;5.13;4.13;;;;;;;20.24;100.00;97817.72;5054615;28;20232;-74
2023/08/26 07:14:54;;;;;;;4.90;4.23;;;;;;;20.23;100.00;97819.63;5054039;28;20823;-74
2023/08/26 07:17:21;;;;;;;4.57;3.90;;;;;;;20.30;100.00;97830.88;5054293;28;20203;-73
2023/08/26 07:19:47;;;;;;;7.97;4.57;;;;;;;20.37;100.00;97811.66;5054172;28;20483;-73
2023/08/26 07:22:13;;;;;;;5.43;4.40;;;;;;;20.24;100.00;97826.63;5054248;28;20217;-73
2023/08/26 07:24:40;;;;;;;5.43;3.97;;;;;;;20.37;100.00;97823.25;5054229;28;20197;-73
2023/08/26 07:27:06;;;;;;;4.93;3.73;;;;;;;20.32;100.00;97823.31;5059175;28;20576;-73
2023/08/26 07:29:34;;;;;;;5.20;4.30;;;;;;;20.45;100.00;97816.41;5064896;28;20216;-73
2023/08/26 07:32:01;;;;;;;7.53;3.50;;;;;;;20.59;100.00;97806.53;5073273;28;20207;-73
2023/08/26 07:34:27;;;;;;;7.70;4.47;;;;;;;20.54;100.00;97817.41;5073809;28;20211;-73
2023/08/26 07:36:53;;;;;;;6.17;3.87;;;;;;;20.85;100.00;97818.63;5070190;28;20587;-73
2023/08/26 07:39:23;;;;;;;5.93;3.90;;;;;;;21.04;100.00;97824.88;5052759;28;20607;-73
2023/08/26 07:41:49;;;;;;;7.47;3.70;;;;;;;20.98;100.00;97821.44;5053848;28;20189;-73
2023/08/26 07:44:15;;;;;;;7.97;4.07;;;;;;;21.03;100.00;97815.97;5053388;28;20728;-73
2023/08/26 07:46:42;;;;;;;7.33;4.13;;;;;;;21.23;100.00;97814.88;5053306;28;20669;-73
2023/08/26 07:49:08;;;;;;;6.33;4.40;;;;;;;21.35;100.00;97799.81;5053345;28;20233;-73
2023/08/26 07:51:34;;;;;;;5.43;4.00;;;;;;;21.28;100.00;97802.09;5053362;28;20664;-73
2023/08/26 07:54:01;;;;;;;7.70;3.60;;;;;;;21.33;100.00;97798.50;5053457;28;20209;-73
2023/08/26 07:56:27;;;;;;;6.00;3.97;;;;;;;21.20;100.00;97788.44;5053407;28;20206;-73
2023/08/26 07:58:53;;;;;;;8.03;3.73;;;;;;;21.21;100.00;97785.44;5053079;28;20715;-73
2023/08/26 08:01:20;;;;;;;7.20;3.77;;;;;;;21.07;100.00;97786.47;5053101;28;20574;-73
2023/08/26 08:03:46;;;;;;;7.53;3.47;;;;;;;21.15;100.00;97786.59;5053241;28;20232;-73
2023/08/26 08:06:12;;;;;;;6.13;3.53;;;;;;;21.50;100.00;97783.38;5053115;28;20209;-73
2023/08/26 08:08:39;;;;;;;6.07;3.93;;;;;;;21.46;100.00;97781.53;5052802;28;20592;-73
2023/08/26 08:11:05;;;;;;;6.57;3.70;;;;;;;21.60;100.00;97796.72;5053378;28;20211;-73
2023/08/26 08:13:31;;;;;;;6.40;3.47;;;;;;;21.66;100.00;97813.69;5054030;28;20197;-73
2023/08/26 08:15:58;;;;;;;5.87;3.50;;;;;;;21.40;100.00;97820.59;5053224;28;20215;-73
2023/08/26 08:18:24;;;;;;;6.20;3.80;;;;;;;21.52;100.00;97815.53;5052999;28;20205;-73
2023/08/26 08:20:52;;;;;;;8.15;3.92;;;;;;;21.35;100.00;97815.25;5053161;28;20201;-73
2023/08/26 08:23:18;;;;;;;9.87;4.37;;;;;;;21.16;100.00;97815.25;5052922;28;20719;-73
2023/08/26 08:25:45;;;;;;;9.23;3.40;;;;;;;21.04;100.00;97816.78;5053421;28;20228;-73
2023/08/26 08:28:11;;;;;;;4.43;3.70;;;;;;;20.96;100.00;97804.72;5052854;28;20205;-73
2023/08/26 08:30:37;;;;;;;4.40;3.37;;;;;;;20.85;100.00;97810.53;5052651;28;20233;-73
2023/08/26 08:33:04;;;;;;;5.70;3.83;;;;;;;20.82;100.00;97811.91;5052927;28;20678;-73
2023/08/26 08:35:30;;;;;;;4.70;3.50;;;;;;;21.15;100.00;97813.63;5053308;28;20210;-73
2023/08/26 08:37:57;;;;;;;4.10;3.30;;;;;;;21.13;100.00;97810.44;5052961;28;20212;-73
2023/08/26 08:40:24;;;;;;;4.73;3.10;;;;;;;20.85;100.00;97799.72;5052718;28;20237;-73
2023/08/26 08:42:51;;;;;;;5.00;3.30;;;;;;;20.92;100.00;97792.06;5052967;28;20228;-73
2023/08/26 08:45:18;;;;;;;4.83;3.50;;;;;;;21.11;100.00;97799.09;5052797;28;20206;-73
2023/08/26 08:47:45;;;;;;;5.80;3.40;;;;;;;21.35;100.00;97801.72;5052901;28;20216;-73
2023/08/26 08:50:13;;;;;;;7.28;4.00;;;;;;;21.16;100.00;97803.66;5054239;28;20228;-73
2023/08/26 08:52:40;;;;;;;6.60;3.55;;;;;;;21.38;100.00;97812.75;5039277;28;20232;-73
2023/08/26 08:55:07;;;;;;;4.33;3.40;;;;;;;20.79;100.00;97811.69;5039310;28;20208;-73
2023/08/26 08:57:36;;;;;;;6.13;4.03;;;;;;;20.88;100.00;97815.34;5056752;28;20213;-73
2023/08/26 09:00:04;;;;;;;6.10;4.07;;;;;;;20.85;100.00;97815.94;5056662;28;20225;-73
2023/08/26 09:02:30;;;;;;;5.17;3.90;;;;;;;21.03;100.00;97812.47;5057037;28;20316;-73
2023/08/26 09:04:57;;;;;;;7.50;3.70;;;;;;;20.97;100.00;97810.91;5056857;28;20201;-73
2023/08/26 09:07:26;;;;;;;4.37;3.60;;;;;;;21.07;100.00;97822.41;5056779;28;20205;-73
2023/08/26 09:09:56;;;;;;;7.13;3.90;;;;;;;21.09;100.00;97806.72;5056705;28;20225;-73
2023/08/26 09:12:23;;;;;;;4.53;3.55;;;;;;;21.17;100.00;97813.34;5056719;28;20197;-73
2023/08/26 09:14:49;;;;;;;7.25;4.03;;;;;;;21.18;100.00;97807.66;5056315;28;20213;-73
2023/08/26 09:17:20;;;;;;;6.77;3.53;;;;;;;21.16;100.00;97806.34;5056366;28;20205;-73
2023/08/26 09:19:58;;;;;;;7.20;3.88;;;;;;;20.95;100.00;97808.53;5056519;28;20229;-73
2023/08/26 09:22:32;;;;;;;6.30;3.85;;;;;;;21.02;100.00;97800.06;5056372;28;20220;-74
2023/08/26 09:25:00;;;;;;;5.22;3.35;;;;;;;21.10;100.00;97800.19;5055943;28;20372;-74
2023/08/26 09:27:27;;;;;;;6.82;2.90;;;;;;;21.04;100.00;97804.09;5056231;28;20201;-74
2023/08/26 09:29:54;;;;;;;6.32;3.63;;;;;;;21.29;100.00;97806.41;5056114;28;20232;-74
2023/08/26 09:32:43;;;;;;;5.18;3.80;;;;;;;21.82;100.00;97802.34;5056043;28;20296;-74
2023/08/26 09:35:17;;;;;;;7.47;4.60;;;;;;;21.62;100.00;97809.97;5055984;28;20225;-74
2023/08/26 09:37:48;;;;;;;5.57;4.53;;;;;;;21.37;100.00;97810.34;5056064;28;20208;-74
2023/08/26 09:40:15;;;;;;;6.00;4.63;;;;;;;21.53;100.00;97809.03;5055584;28;20232;-74
2023/08/26 09:42:43;;;;;;;6.13;4.53;;;;;;;21.43;100.00;97811.91;5056076;28;20235;-73
2023/08/26 09:45:10;;;;;;;6.73;4.53;;;;;;;21.49;100.00;97808.81;5055965;28;20209;-73
2023/08/26 09:47:38;;;;;;;6.53;3.83;;;;;;;21.33;100.00;97803.91;5055691;28;20201;-73
2023/08/26 09:50:06;;;;;;;6.57;4.30;;;;;;;21.09;100.00;97805.91;5055690;28;20231;-73
2023/08/26 09:52:50;;;;;;;5.13;4.30;;;;;;;20.79;100.00;97803.59;5055372;28;20201;-73
2023/08/26 09:55:17;;;;;;;7.17;4.53;;;;;;;20.91;100.00;97791.28;5055654;28;20200;-73
2023/08/26 09:57:44;;;;;;;6.27;4.30;;;;;;;21.03;100.00;97788.16;5055544;28;20201;-73
2023/08/26 10:00:11;;;;;;;7.83;4.20;;;;;;;20.95;100.00;97768.00;5054916;28;20221;-73
2023/08/26 10:03:07;;;;;;;8.23;4.57;;;;;;;20.86;100.00;97761.59;5055129;28;20229;-73
2023/08/26 10:05:37;;;;;;;6.87;3.83;;;;;;;21.00;100.00;97770.63;5053540;28;20211;-73
2023/08/26 10:08:07;;;;;;;8.83;4.00;;;;;;;20.91;100.00;97761.56;5038080;28;20255;-73
2023/08/26 10:10:56;;;;;;;5.90;3.80;;;;;;;20.68;100.00;97770.50;5054995;28;20235;-73
2023/08/26 10:13:28;;;;;;;6.10;3.80;;;;;;;20.71;100.00;97774.50;5054882;28;20232;-74
2023/08/26 10:15:59;;;;;;;7.37;3.57;;;;;;;20.70;100.00;97781.00;5055564;28;20194;-74
2023/08/26 10:18:33;;;;;;;6.97;3.90;;;;;;;20.70;100.00;97789.13;5055171;28;20200;-73
2023/08/26 10:21:03;;;;;;;5.77;3.67;;;;;;;20.57;100.00;97784.41;5055205;28;20268;-73
2023/08/26 10:23:30;;;;;;;5.03;3.70;;;;;;;20.60;100.00;97783.81;5055093;28;20236;-73
2023/08/26 10:25:57;;;;;;;5.47;3.50;;;;;;;20.83;100.00;97793.78;5055033;28;20287;-73
2023/08/26 10:28:26;;;;;;;7.13;4.00;;;;;;;20.72;100.00;97789.63;5055519;28;20209;-73
2023/08/26 10:30:54;;;;;;;5.80;3.30;;;;;;;21.15;100.00;97780.38;5055130;28;20237;-73
2023/08/26 10:33:21;;;;;;;5.63;3.40;;;;;;;21.19;100.00;97782.22;5055024;28;20263;-73
2023/08/26 10:36:12;;;;;;;7.17;3.80;;;;;;;21.54;100.00;97780.88;5054481;28;20210;-73
2023/08/26 10:38:39;;;;;;;6.93;3.90;;;;;;;21.54;100.00;97788.97;5054697;28;20225;-73
2023/08/26 10:41:10;;;;;;;5.60;3.47;;;;;;;21.31;100.00;97789.91;5054414;28;20213;-73
2023/08/26 10:43:37;;;;;;;5.33;3.60;;;;;;;21.00;100.00;97789.53;5054642;28;20248;-73
2023/08/26 10:46:04;;;;;;;6.83;3.50;;;;;;;20.98;100.00;97786.31;5055203;28;20672;-73
2023/08/26 10:48:30;;;;;;;4.83;3.90;;;;;;;21.02;100.00;97781.16;5053966;28;20213;-73
2023/08/26 10:51:03;;;;;;;6.37;3.90;;;;;;;20.84;100.00;97780.00;5054792;28;20213;-73
2023/08/26 10:53:29;;;;;;;6.10;4.00;;;;;;;20.81;100.00;97796.81;5054922;28;20205;-74
2023/08/26 10:56:14;;;;;;;7.10;3.53;;;;;;;20.88;100.00;97791.81;5054681;28;20208;-73
2023/08/26 10:58:46;;;;;;;6.47;3.90;;;;;;;20.95;100.00;97792.31;5054318;28;20235;-73
2023/08/26 11:01:13;;;;;;;5.53;4.10;;;;;;;20.85;100.00;97797.00;5054485;28;20205;-73
2023/08/26 11:03:39;;;;;;;7.57;4.43;;;;;;;20.76;100.00;97793.34;5054419;28;20232;-73
2023/08/26 11:06:08;;;;;;;4.60;3.67;;;;;;;20.87;100.00;97786.72;5054472;28;20205;-73
2023/08/26 11:08:38;;;;;;;5.90;3.20;;;;;;;21.00;100.00;97783.31;5054842;28;20233;-73
2023/08/26 11:11:05;;;;;;;5.70;3.50;;;;;;;21.22;100.00;97772.72;5054343;28;20300;-73
2023/08/26 11:13:32;;;;;;;5.17;3.30;;;;;;;21.43;100.00;97768.63;5052931;28;20212;-73
2023/08/26 11:15:58;;;;;;;8.47;3.57;;;;;;;21.51;100.00;97778.75;5054198;28;20209;-74
2023/08/26 11:18:25;;;;;;;5.60;3.83;;;;;;;21.69;100.00;97783.31;5053950;28;20231;-74
2023/08/26 11:20:52;;;;;;;6.97;3.83;;;;;;;21.65;100.00;97779.59;5036430;28;20211;-74
2023/08/26 11:23:19;;;;;;;5.63;3.80;;;;;;;21.67;100.00;97761.16;5054066;28;20229;-73
2023/08/26 11:25:45;;;;;;;5.77;3.70;;;;;;;21.50;100.00;97766.31;5053546;28;20220;-74